Time;durP1;ratioP1;P1;durP2;ratioP2;P2;SDS_P1;SDS_P2;PMS_P1;PMS_P2;Temp;Humidity;BMP_temperature;BMP_pressure;BME280_temperature;BME280_humidity;BME280_pressure;Samples;Min_cycle;Max_cycle;Signal;HPM_P1;HPM_P2
2022/04/06 00:02:24;;;;;;;5.38;4.35;;;;;;;;;;4957450;29;20086;-70
2022/04/06 00:04:50;;;;;;;5.95;4.60;;;;;;;;;;4957365;29;20448;-70
2022/04/06 00:07:15;;;;;;;5.00;4.10;;;;;;;;;;4957351;29;20031;-70
2022/04/06 00:09:41;;;;;;;5.07;3.97;;;;;;;;;;4957314;29;20016;-70
2022/04/06 00:12:07;;;;;;;4.30;3.90;;;;;;;;;;4956346;28;20091;-70
2022/04/06 00:14:35;;;;;;;5.05;3.88;;;;;;;;;;4939986;29;20058;-70
2022/04/06 00:17:04;;;;;;;4.22;3.83;;;;;;;;;;4957149;29;20110;-71
2022/04/06 00:19:30;;;;;;;4.05;3.67;;;;;;;;;;4957112;29;20027;-72
2022/04/06 00:21:55;;;;;;;4.85;3.80;;;;;;;;;;4957173;29;20390;-72
2022/04/06 00:24:21;;;;;;;4.57;4.05;;;;;;;;;;4956979;29;20019;-73
2022/04/06 00:26:46;;;;;;;4.05;3.70;;;;;;;;;;4956987;29;20107;-71
2022/04/06 00:29:12;;;;;;;4.82;3.92;;;;;;;;;;4939915;29;20027;-71
2022/04/06 00:31:37;;;;;;;3.85;3.55;;;;;;;;;;4939622;29;20035;-72
2022/04/06 00:34:03;;;;;;;3.90;3.58;;;;;;;;;;4956854;29;20019;-71
2022/04/06 00:36:29;;;;;;;5.15;3.17;;;;;;;;;;4956784;29;20035;-71
2022/04/06 00:38:55;;;;;;;4.00;3.58;;;;;;;;;;4956688;29;20027;-71
2022/04/06 00:41:21;;;;;;;4.13;3.75;;;;;;;;;;4956622;29;20031;-70
2022/04/06 00:44:06;;;;;;;3.42;3.13;;;;;;;;;;4956637;29;20018;-70
2022/04/06 00:46:31;;;;;;;4.47;3.58;;;;;;;;;;4956582;29;20038;-70
2022/04/06 00:48:57;;;;;;;3.80;3.47;;;;;;;;;;4956588;29;20016;-70
2022/04/06 00:51:22;;;;;;;3.28;3.08;;;;;;;;;;4956588;29;20550;-71
2022/04/06 00:53:47;;;;;;;3.25;2.95;;;;;;;;;;4956450;29;20019;-70
2022/04/06 00:56:13;;;;;;;3.70;3.40;;;;;;;;;;4956308;29;20051;-71
2022/04/06 00:58:38;;;;;;;3.60;3.30;;;;;;;;;;4956495;29;20046;-71
2022/04/06 01:01:03;;;;;;;4.22;3.83;;;;;;;;;;4956415;29;20113;-71
2022/04/06 01:03:29;;;;;;;3.45;3.13;;;;;;;;;;4956266;29;20023;-71
2022/04/06 01:05:54;;;;;;;3.50;3.15;;;;;;;;;;4956260;29;20070;-71
2022/04/06 01:08:19;;;;;;;3.33;3.03;;;;;;;;;;4956277;29;20074;-71
2022/04/06 01:10:45;;;;;;;3.13;2.92;;;;;;;;;;4956264;29;20031;-71
2022/04/06 01:13:11;;;;;;;3.20;2.78;;;;;;;;;;4956232;29;20030;-71
2022/04/06 01:15:36;;;;;;;3.65;3.13;;;;;;;;;;4959125;29;20074;-72
2022/04/06 01:18:02;;;;;;;3.53;3.22;;;;;;;;;;4957690;29;20105;-72
2022/04/06 01:20:29;;;;;;;3.08;2.88;;;;;;;;;;4956113;29;20122;-72
2022/04/06 01:22:54;;;;;;;2.85;2.65;;;;;;;;;;4956039;28;20026;-72
2022/04/06 01:25:19;;;;;;;4.35;2.95;;;;;;;;;;4955945;29;20039;-72
2022/04/06 01:27:45;;;;;;;3.03;2.72;;;;;;;;;;4955934;29;20031;-73
2022/04/06 01:30:10;;;;;;;2.78;2.58;;;;;;;;;;4955931;29;20066;-72
2022/04/06 01:32:36;;;;;;;2.78;2.58;;;;;;;;;;4955797;29;20471;-72
2022/04/06 01:35:03;;;;;;;3.10;2.75;;;;;;;;;;4955781;29;20042;-72
2022/04/06 01:37:28;;;;;;;2.80;2.10;;;;;;;;;;4955768;29;20029;-72
2022/04/06 01:39:54;;;;;;;2.92;2.72;;;;;;;;;;4955685;29;20027;-72
2022/04/06 01:42:20;;;;;;;2.58;2.38;;;;;;;;;;4939417;29;20031;-72
2022/04/06 01:44:46;;;;;;;3.63;2.78;;;;;;;;;;4940678;29;20555;-72
2022/04/06 01:47:12;;;;;;;2.88;2.58;;;;;;;;;;4955649;29;20059;-72
2022/04/06 01:52:23;;;;;;;3.05;2.40;;;;;;;;;;4938291;29;20042;-72
2022/04/06 01:54:50;;;;;;;2.70;2.50;;;;;;;;;;4954981;29;20047;-72
2022/04/06 01:57:16;;;;;;;2.60;2.40;;;;;;;;;;4956128;29;20085;-72
2022/04/06 01:59:41;;;;;;;2.92;2.72;;;;;;;;;;4956002;29;20375;-72
2022/04/06 02:02:07;;;;;;;3.25;2.95;;;;;;;;;;4955481;29;20031;-72
2022/04/06 02:04:33;;;;;;;1.95;1.75;;;;;;;;;;4955488;29;20028;-72
2022/04/06 02:06:58;;;;;;;3.13;2.63;;;;;;;;;;4938227;29;20090;-72
2022/04/06 02:09:24;;;;;;;3.45;3.15;;;;;;;;;;4955739;29;20086;-72
2022/04/06 02:11:49;;;;;;;3.05;2.85;;;;;;;;;;4938199;29;20479;-72
2022/04/06 02:14:15;;;;;;;2.90;2.53;;;;;;;;;;4922364;29;20030;-72
2022/04/06 02:16:40;;;;;;;3.05;2.85;;;;;;;;;;4955399;29;20114;-72
2022/04/06 02:19:06;;;;;;;3.13;2.83;;;;;;;;;;4955280;29;20030;-72
2022/04/06 02:21:32;;;;;;;3.42;3.17;;;;;;;;;;4955363;29;20031;-71
2022/04/06 02:23:57;;;;;;;3.70;3.28;;;;;;;;;;4955574;29;20031;-72
2022/04/06 02:26:22;;;;;;;3.22;2.92;;;;;;;;;;4955599;29;20030;-73
2022/04/06 02:28:48;;;;;;;3.22;2.97;;;;;;;;;;4955512;29;20448;-72
2022/04/06 02:31:13;;;;;;;2.85;2.65;;;;;;;;;;4955245;29;20392;-72
2022/04/06 02:33:38;;;;;;;3.42;3.13;;;;;;;;;;4955496;28;20027;-70
2022/04/06 02:36:04;;;;;;;3.28;3.03;;;;;;;;;;4958984;29;20043;-71
2022/04/06 02:38:30;;;;;;;3.92;3.58;;;;;;;;;;4941663;29;20035;-71
2022/04/06 02:40:55;;;;;;;3.30;3.10;;;;;;;;;;4959136;29;20037;-71
2022/04/06 02:43:21;;;;;;;3.50;2.97;;;;;;;;;;4959178;29;20027;-71
2022/04/06 02:45:47;;;;;;;3.17;2.92;;;;;;;;;;4942015;29;20464;-70
2022/04/06 02:48:13;;;;;;;3.72;2.53;;;;;;;;;;4958796;29;20030;-69
2022/04/06 02:50:38;;;;;;;3.58;3.28;;;;;;;;;;4942027;29;20375;-71
2022/04/06 02:53:04;;;;;;;3.38;2.95;;;;;;;;;;4958707;29;20027;-72
2022/04/06 02:55:29;;;;;;;3.20;2.92;;;;;;;;;;4958419;29;20396;-72
2022/04/06 02:57:55;;;;;;;3.17;2.85;;;;;;;;;;4958604;29;20034;-72
2022/04/06 03:00:20;;;;;;;3.05;2.85;;;;;;;;;;4958882;29;20028;-72
2022/04/06 03:02:46;;;;;;;3.35;2.97;;;;;;;;;;4958826;29;20469;-72
2022/04/06 03:05:12;;;;;;;3.17;2.95;;;;;;;;;;4941272;29;20034;-72
2022/04/06 03:07:38;;;;;;;2.83;2.63;;;;;;;;;;4941199;29;20467;-72
2022/04/06 03:10:03;;;;;;;3.58;3.28;;;;;;;;;;4941290;29;20035;-72
2022/04/06 03:12:28;;;;;;;2.95;2.75;;;;;;;;;;4958382;29;20379;-72
2022/04/06 03:14:54;;;;;;;3.08;2.88;;;;;;;;;;4958829;29;20029;-72
2022/04/06 03:17:19;;;;;;;3.00;2.75;;;;;;;;;;4958595;29;20022;-73
2022/04/06 03:19:45;;;;;;;3.72;3.42;;;;;;;;;;4958155;29;20035;-73
2022/04/06 03:22:16;;;;;;;3.45;3.15;;;;;;;;;;4958745;29;20019;-72
2022/04/06 03:24:41;;;;;;;3.22;3.00;;;;;;;;;;4958151;29;20023;-72
2022/04/06 03:27:07;;;;;;;3.90;3.15;;;;;;;;;;4970391;23;20495;-72
2022/04/06 03:29:32;;;;;;;3.17;2.97;;;;;;;;;;4958312;29;20356;-71
2022/04/06 03:31:57;;;;;;;2.97;2.67;;;;;;;;;;4958013;29;20027;-72
2022/04/06 03:34:23;;;;;;;3.17;2.97;;;;;;;;;;4957947;29;20047;-72
2022/04/06 03:36:48;;;;;;;3.35;2.72;;;;;;;;;;4958189;29;20031;-71
2022/04/06 03:39:13;;;;;;;3.10;2.80;;;;;;;;;;4958346;29;20055;-72
2022/04/06 03:41:39;;;;;;;3.20;2.95;;;;;;;;;;4940601;29;20479;-71
2022/04/06 03:44:04;;;;;;;3.35;3.13;;;;;;;;;;4958046;29;20027;-71
2022/04/06 03:46:30;;;;;;;2.85;2.65;;;;;;;;;;4957983;28;20059;-71
2022/04/06 03:48:55;;;;;;;2.83;2.63;;;;;;;;;;4957703;29;20031;-71
2022/04/06 03:51:20;;;;;;;3.35;3.05;;;;;;;;;;4958237;29;20023;-70
2022/04/06 03:53:46;;;;;;;3.22;2.92;;;;;;;;;;4957874;29;20042;-71
2022/04/06 03:56:11;;;;;;;2.75;2.55;;;;;;;;;;4957602;29;20051;-71
2022/04/06 03:58:36;;;;;;;3.15;2.85;;;;;;;;;;4958298;29;20035;-72
2022/04/06 04:01:02;;;;;;;3.10;2.90;;;;;;;;;;4958490;29;20019;-72
2022/04/06 04:03:27;;;;;;;2.97;2.78;;;;;;;;;;4940734;29;20410;-72
2022/04/06 04:05:52;;;;;;;2.63;2.47;;;;;;;;;;4940584;29;20035;-72
2022/04/06 04:08:20;;;;;;;3.38;2.47;;;;;;;;;;4940957;29;20035;-72
2022/04/06 04:10:46;;;;;;;3.15;2.95;;;;;;;;;;4940081;29;20024;-71
2022/04/06 04:13:12;;;;;;;2.80;2.60;;;;;;;;;;4940026;29;20035;-71
2022/04/06 04:15:37;;;;;;;3.53;2.97;;;;;;;;;;4957182;29;20479;-68
2022/04/06 04:18:02;;;;;;;2.60;2.40;;;;;;;;;;4956912;29;20047;-71
2022/04/06 04:20:28;;;;;;;2.97;2.72;;;;;;;;;;4957360;29;20031;-71
2022/04/06 04:22:53;;;;;;;3.33;3.03;;;;;;;;;;4924005;29;20126;-71
2022/04/06 04:25:18;;;;;;;2.88;2.72;;;;;;;;;;4957076;29;20027;-71
2022/04/06 04:27:45;;;;;;;2.90;2.70;;;;;;;;;;4958176;29;20380;-72
2022/04/06 04:30:10;;;;;;;3.58;3.22;;;;;;;;;;4957734;29;20028;-72
2022/04/06 04:32:36;;;;;;;3.78;3.47;;;;;;;;;;4957175;29;20035;-72
2022/04/06 04:35:03;;;;;;;2.85;2.65;;;;;;;;;;4957143;29;20093;-72
2022/04/06 04:37:29;;;;;;;3.50;3.28;;;;;;;;;;4939494;29;20118;-71
2022/04/06 04:39:54;;;;;;;3.50;3.22;;;;;;;;;;4956450;29;20103;-72
2022/04/06 04:42:20;;;;;;;4.20;3.63;;;;;;;;;;4955791;29;20035;-71
2022/04/06 04:44:45;;;;;;;3.90;3.60;;;;;;;;;;4955770;29;20050;-71
2022/04/06 04:47:10;;;;;;;3.30;3.05;;;;;;;;;;4955681;29;20314;-72
2022/04/06 04:49:36;;;;;;;3.38;3.08;;;;;;;;;;4955730;29;20111;-72
2022/04/06 04:52:01;;;;;;;3.35;3.10;;;;;;;;;;4955644;29;20040;-73
2022/04/06 04:54:26;;;;;;;2.55;2.42;;;;;;;;;;4938665;29;20094;-71
2022/04/06 04:56:52;;;;;;;3.40;3.13;;;;;;;;;;4938773;29;20041;-72
2022/04/06 04:59:18;;;;;;;3.50;3.13;;;;;;;;;;4956638;29;20031;-72
2022/04/06 05:01:44;;;;;;;3.88;3.55;;;;;;;;;;4956366;29;20035;-73
2022/04/06 05:04:09;;;;;;;3.10;2.70;;;;;;;;;;4956611;29;20436;-72
2022/04/06 05:06:35;;;;;;;2.83;2.63;;;;;;;;;;4939054;29;20098;-72
2022/04/06 05:09:01;;;;;;;3.55;3.30;;;;;;;;;;4956251;29;20468;-72
2022/04/06 05:11:27;;;;;;;2.83;2.63;;;;;;;;;;4956168;29;20035;-71
2022/04/06 05:13:52;;;;;;;3.22;2.95;;;;;;;;;;4956425;29;20023;-71
2022/04/06 05:16:17;;;;;;;2.92;2.72;;;;;;;;;;4956364;29;20027;-72
2022/04/06 05:18:43;;;;;;;3.28;3.05;;;;;;;;;;4956301;29;20028;-72
2022/04/06 05:21:08;;;;;;;3.10;2.90;;;;;;;;;;4956034;29;20035;-72
2022/04/06 05:23:33;;;;;;;2.60;2.42;;;;;;;;;;4956024;29;20085;-72
2022/04/06 05:25:59;;;;;;;2.85;2.65;;;;;;;;;;4956250;29;20073;-72
2022/04/06 05:28:24;;;;;;;2.55;2.35;;;;;;;;;;4956270;29;20042;-71
2022/04/06 05:30:51;;;;;;;1.70;1.60;;;;;;;;;;4955897;29;20452;-72
2022/04/06 05:33:16;;;;;;;3.08;2.88;;;;;;;;;;4956055;29;20059;-72
2022/04/06 05:35:41;;;;;;;3.75;3.38;;;;;;;;;;4955819;29;20065;-71
2022/04/06 05:38:07;;;;;;;3.60;3.28;;;;;;;;;;4955687;29;20039;-70
2022/04/06 05:40:32;;;;;;;5.25;3.88;;;;;;;;;;4956351;29;20384;-73
2022/04/06 05:42:57;;;;;;;3.70;3.20;;;;;;;;;;4955729;29;20371;-72
2022/04/06 05:45:23;;;;;;;2.83;2.63;;;;;;;;;;4955683;29;20098;-72
2022/04/06 05:47:49;;;;;;;3.47;3.22;;;;;;;;;;4956197;29;20023;-74
2022/04/06 05:50:14;;;;;;;1.17;1.10;;;;;;;;;;4955618;29;20086;-72
2022/04/06 05:52:40;;;;;;;3.17;2.78;;;;;;;;;;4955613;29;20435;-72
2022/04/06 05:55:05;;;;;;;1.95;1.75;;;;;;;;;;4955793;29;20130;-69
2022/04/06 05:57:31;;;;;;;3.50;3.20;;;;;;;;;;4955475;29;20027;-66
2022/04/06 05:59:57;;;;;;;1.42;1.35;;;;;;;;;;4955534;29;20031;-69
2022/04/06 06:02:24;;;;;;;2.00;1.90;;;;;;;;;;4955787;29;20111;-68
2022/04/06 06:04:53;;;;;;;3.95;3.03;;;;;;;;;;4938305;29;20031;-68
2022/04/06 06:07:19;;;;;;;2.85;2.63;;;;;;;;;;4955755;29;20051;-68
2022/04/06 06:09:44;;;;;;;2.90;2.63;;;;;;;;;;4957178;28;20032;-70
2022/04/06 06:12:10;;;;;;;3.58;3.20;;;;;;;;;;4959458;29;20428;-67
2022/04/06 06:14:35;;;;;;;2.55;2.28;;;;;;;;;;4959372;29;20035;-68
2022/04/06 06:17:01;;;;;;;2.58;2.38;;;;;;;;;;4959643;29;20097;-69
2022/04/06 06:19:26;;;;;;;6.15;4.22;;;;;;;;;;4942680;29;20027;-69
2022/04/06 06:21:52;;;;;;;3.53;3.22;;;;;;;;;;4959242;29;20023;-68
2022/04/06 06:24:18;;;;;;;1.33;0.82;;;;;;;;;;4959471;29;20023;-68
2022/04/06 06:26:44;;;;;;;4.95;4.50;;;;;;;;;;4959208;29;20028;-69
2022/04/06 06:29:10;;;;;;;2.58;1.90;;;;;;;;;;4958998;29;20131;-68
2022/04/06 06:31:35;;;;;;;1.08;1.02;;;;;;;;;;4959651;29;20093;-68
2022/04/06 06:34:00;;;;;;;3.92;3.42;;;;;;;;;;4959049;29;20118;-68
2022/04/06 06:36:26;;;;;;;3.55;3.22;;;;;;;;;;4959010;29;20464;-68
2022/04/06 06:38:52;;;;;;;3.95;3.55;;;;;;;;;;4941707;29;20046;-69
2022/04/06 06:41:18;;;;;;;5.05;3.47;;;;;;;;;;4942078;29;20023;-68
2022/04/06 06:43:44;;;;;;;2.22;2.05;;;;;;;;;;4958897;29;20178;-68
2022/04/06 06:46:10;;;;;;;3.28;3.08;;;;;;;;;;4959139;29;20046;-68
2022/04/06 06:48:35;;;;;;;2.65;2.45;;;;;;;;;;4958798;29;20039;-67
2022/04/06 06:51:00;;;;;;;1.70;1.50;;;;;;;;;;4958804;29;20464;-68
2022/04/06 06:53:25;;;;;;;3.67;3.38;;;;;;;;;;4958993;29;20378;-68
2022/04/06 06:55:51;;;;;;;1.88;1.65;;;;;;;;;;4958984;29;20027;-67
2022/04/06 06:58:16;;;;;;;2.92;2.70;;;;;;;;;;4958570;29;20037;-68
2022/04/06 07:00:42;;;;;;;3.35;2.70;;;;;;;;;;4958874;29;20074;-67
2022/04/06 07:03:07;;;;;;;2.47;2.28;;;;;;;;;;4958789;29;20071;-68
2022/04/06 07:05:32;;;;;;;4.93;2.95;;;;;;;;;;4958541;29;20031;-67
2022/04/06 07:07:59;;;;;;;1.63;1.50;;;;;;;;;;4958736;29;20070;-68
2022/04/06 07:10:25;;;;;;;3.67;3.10;;;;;;;;;;4958416;29;20034;-67
2022/04/06 07:12:51;;;;;;;2.35;2.15;;;;;;;;;;4958371;29;20114;-67
2022/04/06 07:15:17;;;;;;;4.10;3.72;;;;;;;;;;4958616;29;20058;-68
2022/04/06 07:17:42;;;;;;;2.20;2.03;;;;;;;;;;4958251;29;20039;-69
2022/04/06 07:20:09;;;;;;;2.97;2.75;;;;;;;;;;4957804;28;20020;-68
2022/04/06 07:22:34;;;;;;;3.78;3.30;;;;;;;;;;4958452;29;20039;-69
2022/04/06 07:24:59;;;;;;;1.48;1.38;;;;;;;;;;4941017;29;20028;-69
2022/04/06 07:27:25;;;;;;;2.75;2.55;;;;;;;;;;4957908;29;20039;-68
2022/04/06 07:29:53;;;;;;;3.67;2.92;;;;;;;;;;4958203;29;20138;-68
2022/04/06 07:32:18;;;;;;;2.20;1.80;;;;;;;;;;4958302;29;20110;-68
2022/04/06 07:34:44;;;;;;;2.92;2.33;;;;;;;;;;4958256;29;20120;-67
2022/04/06 07:37:09;;;;;;;2.47;2.25;;;;;;;;;;4958228;29;20027;-68
2022/04/06 07:39:35;;;;;;;2.38;2.17;;;;;;;;;;4957830;29;20043;-69
2022/04/06 07:42:01;;;;;;;2.92;2.58;;;;;;;;;;4957862;29;20023;-68
2022/04/06 07:44:26;;;;;;;1.90;1.67;;;;;;;;;;4940639;29;20028;-67
2022/04/06 07:46:52;;;;;;;2.63;2.42;;;;;;;;;;4957788;29;20019;-69
2022/04/06 07:49:17;;;;;;;2.90;2.65;;;;;;;;;;4958234;29;20112;-69
2022/04/06 07:51:43;;;;;;;2.85;2.65;;;;;;;;;;4957690;29;20031;-67
2022/04/06 07:54:09;;;;;;;2.50;2.30;;;;;;;;;;4957921;29;20117;-68
2022/04/06 07:56:34;;;;;;;2.90;2.63;;;;;;;;;;4957878;29;20114;-68
2022/04/06 07:59:00;;;;;;;2.55;2.35;;;;;;;;;;4957996;29;20035;-63
2022/04/06 08:01:25;;;;;;;2.20;2.10;;;;;;;;;;4957757;29;20030;-64
2022/04/06 08:03:51;;;;;;;2.55;2.35;;;;;;;;;;4957497;29;20027;-65
2022/04/06 08:06:17;;;;;;;2.78;2.50;;;;;;;;;;4957449;29;20094;-64
2022/04/06 08:08:42;;;;;;;1.65;1.55;;;;;;;;;;4957370;29;20106;-67
2022/04/06 08:11:08;;;;;;;2.00;1.63;;;;;;;;;;4957308;29;20034;-65
2022/04/06 08:13:34;;;;;;;3.70;2.65;;;;;;;;;;4957389;29;20038;-65
2022/04/06 08:15:59;;;;;;;1.95;1.85;;;;;;;;;;4940108;29;20027;-68
2022/04/06 08:18:25;;;;;;;2.30;2.10;;;;;;;;;;4957104;29;20042;-68
2022/04/06 08:20:50;;;;;;;2.88;2.63;;;;;;;;;;4957448;29;20022;-67
2022/04/06 08:23:17;;;;;;;2.33;2.17;;;;;;;;;;4957058;29;20110;-68
2022/04/06 08:25:43;;;;;;;0.95;0.95;;;;;;;;;;4957005;29;20128;-68
2022/04/06 08:28:10;;;;;;;2.38;2.17;;;;;;;;;;4956911;29;20057;-69
2022/04/06 08:30:39;;;;;;;2.00;1.80;;;;;;;;;;4956978;29;20046;-69
2022/04/06 08:33:05;;;;;;;2.40;1.88;;;;;;;;;;4956225;28;20023;-68
2022/04/06 08:35:30;;;;;;;2.00;1.88;;;;;;;;;;4939780;29;20082;-64
2022/04/06 08:37:55;;;;;;;2.15;1.95;;;;;;;;;;4957303;29;20027;-65
2022/04/06 08:40:21;;;;;;;2.67;2.22;;;;;;;;;;4957073;29;20054;-63
2022/04/06 08:42:46;;;;;;;2.28;2.08;;;;;;;;;;4956753;29;20379;-65
2022/04/06 08:45:12;;;;;;;1.85;1.23;;;;;;;;;;4940184;29;20038;-65
2022/04/06 08:47:37;;;;;;;1.77;1.67;;;;;;;;;;4940263;29;20451;-64
2022/04/06 08:50:04;;;;;;;1.23;1.05;;;;;;;;;;4956860;29;20044;-65
2022/04/06 08:52:33;;;;;;;1.05;1.00;;;;;;;;;;4956815;29;20019;-65
2022/04/06 08:54:58;;;;;;;1.50;1.40;;;;;;;;;;4956781;29;20031;-66
2022/04/06 08:57:24;;;;;;;1.75;1.45;;;;;;;;;;4956427;29;20023;-66
2022/04/06 08:59:49;;;;;;;2.50;2.33;;;;;;;;;;4956360;29;20082;-66
2022/04/06 09:02:18;;;;;;;2.65;2.45;;;;;;;;;;4956680;29;20034;-65
2022/04/06 09:04:44;;;;;;;2.13;1.92;;;;;;;;;;4956354;29;20391;-65
2022/04/06 09:07:10;;;;;;;2.50;2.30;;;;;;;;;;4939479;29;20110;-65
2022/04/06 09:09:36;;;;;;;1.90;1.80;;;;;;;;;;4956778;29;20031;-65
2022/04/06 09:12:15;;;;;;;2.10;1.92;;;;;;;;;;4939121;29;20030;-63
2022/04/06 09:14:40;;;;;;;2.28;2.15;;;;;;;;;;4956694;29;20357;-65
2022/04/06 09:17:08;;;;;;;2.38;2.20;;;;;;;;;;4956138;29;20069;-64
2022/04/06 09:19:35;;;;;;;1.92;1.75;;;;;;;;;;4938896;29;20047;-64
2022/04/06 09:22:04;;;;;;;1.50;1.45;;;;;;;;;;4956317;29;20019;-65
2022/04/06 09:24:30;;;;;;;0.85;0.85;;;;;;;;;;4956269;29;20072;-65
2022/04/06 09:26:59;;;;;;;3.20;2.83;;;;;;;;;;4955790;29;20057;-64
2022/04/06 09:29:26;;;;;;;3.03;2.75;;;;;;;;;;4956180;29;20370;-64
2022/04/06 09:31:52;;;;;;;2.08;1.95;;;;;;;;;;4956024;29;20110;-64
2022/04/06 09:34:21;;;;;;;4.13;0.80;;;;;;;;;;4938712;29;20527;-64
2022/04/06 09:36:47;;;;;;;3.33;2.70;;;;;;;;;;4955862;29;20031;-64
2022/04/06 09:39:12;;;;;;;1.70;1.60;;;;;;;;;;4955686;29;20195;-64
2022/04/06 09:41:57;;;;;;;3.25;2.95;;;;;;;;;;4955767;29;20039;-64
2022/04/06 09:50:20;;;;;;;2.75;2.55;;;;;;;;;;4955826;29;20034;-65
2022/04/06 09:52:46;;;;;;;2.78;2.58;;;;;;;;;;4955891;29;20031;-64
2022/04/06 09:55:12;;;;;;;2.78;2.45;;;;;;;;;;4954646;29;20487;-64
2022/04/06 09:57:42;;;;;;;2.90;2.65;;;;;;;;;;4954544;29;20035;-63
2022/04/06 10:00:18;;;;;;;1.90;1.80;;;;;;;;;;4954584;29;20436;-64
2022/04/06 10:03:12;;;;;;;2.45;2.28;;;;;;;;;;4954696;29;20035;-64
2022/04/06 10:05:39;;;;;;;2.30;2.08;;;;;;;;;;4918130;29;20481;-64
2022/04/06 10:08:06;;;;;;;2.75;2.30;;;;;;;;;;4954143;29;20031;-63
2022/04/06 10:10:32;;;;;;;2.63;2.42;;;;;;;;;;4955720;29;20043;-65
2022/04/06 10:12:57;;;;;;;0.90;0.90;;;;;;;;;;4954776;29;20112;-64
2022/04/06 10:15:26;;;;;;;2.42;2.22;;;;;;;;;;4955316;29;20046;-63
2022/04/06 10:17:52;;;;;;;2.10;1.95;;;;;;;;;;4954806;29;20027;-64
2022/04/06 10:20:21;;;;;;;2.55;2.40;;;;;;;;;;4937968;29;20034;-64
2022/04/06 10:23:07;;;;;;;2.15;1.95;;;;;;;;;;4954851;29;20467;-64
2022/04/06 10:25:40;;;;;;;1.90;1.70;;;;;;;;;;4954173;29;20102;-67
2022/04/06 10:28:10;;;;;;;3.28;2.97;;;;;;;;;;4954844;29;20052;-67
2022/04/06 10:30:35;;;;;;;2.60;2.30;;;;;;;;;;4954464;29;20433;-66
2022/04/06 10:33:17;;;;;;;0.77;0.77;;;;;;;;;;4955152;29;20054;-66
2022/04/06 10:35:42;;;;;;;2.58;2.38;;;;;;;;;;4954735;29;20487;-66
2022/04/06 10:38:07;;;;;;;3.80;2.53;;;;;;;;;;4955079;29;20029;-66
2022/04/06 10:40:42;;;;;;;5.63;3.67;;;;;;;;;;4955126;29;20038;-66
2022/04/06 10:43:27;;;;;;;3.17;2.95;;;;;;;;;;4955065;29;20024;-66
2022/04/06 10:45:53;;;;;;;4.50;3.15;;;;;;;;;;4954947;29;20027;-66
2022/04/06 10:48:18;;;;;;;3.13;2.83;;;;;;;;;;4955104;29;20097;-67
2022/04/06 10:50:45;;;;;;;4.78;3.10;;;;;;;;;;4955016;29;20097;-66
2022/04/06 10:53:19;;;;;;;3.00;2.72;;;;;;;;;;4954935;29;20019;-66
2022/04/06 10:56:02;;;;;;;3.28;2.97;;;;;;;;;;4956039;28;20372;-67
2022/04/06 10:58:28;;;;;;;5.65;3.88;;;;;;;;;;4958494;29;20027;-66
2022/04/06 11:01:12;;;;;;;2.78;2.28;;;;;;;;;;4958462;29;20077;-66
2022/04/06 11:03:40;;;;;;;2.85;2.65;;;;;;;;;;4958927;29;20027;-66
2022/04/06 11:06:05;;;;;;;5.85;4.15;;;;;;;;;;4958527;29;20050;-66
2022/04/06 11:11:39;;;;;;;4.35;2.75;;;;;;;;;;4958960;29;20041;-66
2022/04/06 11:14:04;;;;;;;2.17;2.05;;;;;;;;;;4958642;29;20094;-67
2022/04/06 11:16:40;;;;;;;2.75;2.38;;;;;;;;;;4957782;29;20031;-66
2022/04/06 11:19:05;;;;;;;2.13;1.52;;;;;;;;;;4958437;29;20043;-66
2022/04/06 11:21:31;;;;;;;3.30;2.50;;;;;;;;;;4958438;29;20027;-66
2022/04/06 11:23:57;;;;;;;1.85;1.75;;;;;;;;;;4958449;29;20031;-66
2022/04/06 11:26:23;;;;;;;1.83;1.70;;;;;;;;;;4958464;29;20038;-66
2022/04/06 11:28:58;;;;;;;2.45;2.25;;;;;;;;;;4958008;29;20098;-66
2022/04/06 11:31:24;;;;;;;3.40;2.45;;;;;;;;;;4958317;29;20039;-67
2022/04/06 11:33:49;;;;;;;2.35;2.15;;;;;;;;;;4958311;29;20038;-66
2022/04/06 11:36:16;;;;;;;2.83;2.38;;;;;;;;;;4957626;29;20587;-66
2022/04/06 11:38:41;;;;;;;2.25;2.08;;;;;;;;;;4958399;29;20027;-66
2022/04/06 11:41:06;;;;;;;2.70;2.40;;;;;;;;;;4940811;29;20090;-65
2022/04/06 11:43:35;;;;;;;2.45;2.17;;;;;;;;;;4958134;29;20026;-66
2022/04/06 11:46:01;;;;;;;3.85;1.55;;;;;;;;;;4958097;29;20119;-66
2022/04/06 11:48:37;;;;;;;3.40;2.47;;;;;;;;;;4957785;29;20114;-65
2022/04/06 11:51:03;;;;;;;2.88;2.08;;;;;;;;;;4957690;29;20043;-67
2022/04/06 11:53:28;;;;;;;1.23;1.15;;;;;;;;;;4940536;29;20027;-66
2022/04/06 11:55:54;;;;;;;3.25;2.25;;;;;;;;;;4957455;29;20042;-66
2022/04/06 11:58:39;;;;;;;3.38;3.08;;;;;;;;;;4957193;29;20023;-67
2022/04/06 12:01:07;;;;;;;3.42;2.80;;;;;;;;;;4957800;29;20479;-67
2022/04/06 12:03:34;;;;;;;3.08;2.13;;;;;;;;;;4956683;29;20029;-67
2022/04/06 12:06:00;;;;;;;2.53;2.08;;;;;;;;;;4957150;28;20031;-66
2022/04/06 12:08:26;;;;;;;1.92;1.73;;;;;;;;;;4956300;29;20027;-66
2022/04/06 12:10:56;;;;;;;2.72;2.20;;;;;;;;;;4957266;29;20376;-66
2022/04/06 12:13:22;;;;;;;;;;;;;;;;;;4957410;29;20035;-65
2022/04/06 12:15:48;;;;;;;3.13;2.35;;;;;;;;;;4957271;29;19907;-66
2022/04/06 12:18:19;;;;;;;1.67;1.58;;;;;;;;;;4955731;29;20047;-66
2022/04/06 12:20:46;;;;;;;1.92;1.83;;;;;;;;;;4957736;29;20098;-66
2022/04/06 12:23:11;;;;;;;2.83;2.40;;;;;;;;;;4957200;29;20024;-66
2022/04/06 12:25:37;;;;;;;2.20;2.05;;;;;;;;;;4957092;29;20113;-66
2022/04/06 12:28:09;;;;;;;1.48;1.38;;;;;;;;;;4957077;29;20087;-66
2022/04/06 12:30:35;;;;;;;2.47;2.28;;;;;;;;;;4957315;29;20027;-66
2022/04/06 12:33:00;;;;;;;1.52;1.42;;;;;;;;;;4957237;29;20576;-66
2022/04/06 12:35:26;;;;;;;1.52;1.42;;;;;;;;;;4956903;29;20031;-66
2022/04/06 12:37:51;;;;;;;1.38;0.70;;;;;;;;;;4956806;29;20015;-66
2022/04/06 12:40:23;;;;;;;2.55;2.22;;;;;;;;;;4957098;29;20075;-66
2022/04/06 12:42:49;;;;;;;3.28;1.90;;;;;;;;;;4957074;29;20054;-66
2022/04/06 12:45:14;;;;;;;2.58;2.38;;;;;;;;;;4956993;29;20459;-66
2022/04/06 12:47:39;;;;;;;1.35;1.25;;;;;;;;;;4956706;29;20027;-66
2022/04/06 12:50:11;;;;;;;0.70;0.63;;;;;;;;;;4956626;29;20033;-66
2022/04/06 12:52:37;;;;;;;2.05;1.85;;;;;;;;;;4956855;29;20127;-66
2022/04/06 12:55:07;;;;;;;4.40;2.20;;;;;;;;;;4956826;29;20449;-66
2022/04/06 12:57:36;;;;;;;2.30;1.90;;;;;;;;;;4956566;29;20042;-66
2022/04/06 13:00:08;;;;;;;2.25;2.05;;;;;;;;;;4956652;29;20333;-66
2022/04/06 13:02:37;;;;;;;2.40;2.00;;;;;;;;;;4939516;29;20066;-66
2022/04/06 13:05:05;;;;;;;2.58;2.35;;;;;;;;;;4956308;29;20495;-66
2022/04/06 13:07:31;;;;;;;2.65;1.90;;;;;;;;;;4956111;29;20062;-66
2022/04/06 13:09:58;;;;;;;4.70;3.72;;;;;;;;;;4956548;29;20043;-66
2022/04/06 13:12:28;;;;;;;3.63;2.17;;;;;;;;;;4956533;29;20106;-66
2022/04/06 13:14:54;;;;;;;2.33;2.13;;;;;;;;;;4956527;29;20094;-66
2022/04/06 13:17:19;;;;;;;2.85;2.55;;;;;;;;;;4956263;29;20024;-66
2022/04/06 13:19:45;;;;;;;1.15;1.08;;;;;;;;;;4955526;28;20114;-66
2022/04/06 13:22:11;;;;;;;1.95;1.73;;;;;;;;;;4956391;29;20404;-67
2022/04/06 13:24:37;;;;;;;3.05;2.40;;;;;;;;;;4956596;29;20059;-66
2022/04/06 13:27:03;;;;;;;2.42;1.80;;;;;;;;;;4956006;29;20022;-66
2022/04/06 13:29:29;;;;;;;1.92;1.60;;;;;;;;;;4955762;29;20074;-67
2022/04/06 13:31:55;;;;;;;2.97;1.92;;;;;;;;;;4938773;29;20468;-66
2022/04/06 13:34:21;;;;;;;2.30;2.10;;;;;;;;;;4938584;29;20031;-66
2022/04/06 13:36:47;;;;;;;1.45;1.35;;;;;;;;;;4953783;29;20027;-66
2022/04/06 13:39:13;;;;;;;2.17;1.98;;;;;;;;;;4954715;29;20022;-66
2022/04/06 13:41:39;;;;;;;4.00;2.33;;;;;;;;;;4954973;29;20114;-66
2022/04/06 13:44:04;;;;;;;1.80;1.35;;;;;;;;;;4937674;29;20500;-66
2022/04/06 13:46:30;;;;;;;2.30;2.13;;;;;;;;;;4954436;29;20031;-66
2022/04/06 13:48:57;;;;;;;2.85;2.45;;;;;;;;;;4937539;29;20383;-66
2022/04/06 13:51:23;;;;;;;2.22;1.77;;;;;;;;;;4937176;29;20046;-67
2022/04/06 13:53:49;;;;;;;2.58;2.33;;;;;;;;;;4953529;29;20248;-66
2022/04/06 13:56:14;;;;;;;3.35;2.33;;;;;;;;;;4953432;29;20062;-66
2022/04/06 13:58:39;;;;;;;2.30;2.05;;;;;;;;;;4953403;29;20054;-66
2022/04/06 14:01:05;;;;;;;2.60;1.90;;;;;;;;;;4953364;29;20027;-66
2022/04/06 14:03:31;;;;;;;4.57;2.47;;;;;;;;;;4936330;29;20078;-66
2022/04/06 14:05:57;;;;;;;3.30;2.22;;;;;;;;;;4954040;29;20035;-62
2022/04/06 14:08:23;;;;;;;3.78;3.45;;;;;;;;;;4938405;29;20455;-62
2022/04/06 14:10:49;;;;;;;2.95;2.05;;;;;;;;;;4955709;29;20031;-62
2022/04/06 14:13:15;;;;;;;1.77;1.60;;;;;;;;;;4955959;29;20051;-64
2022/04/06 14:15:41;;;;;;;2.67;2.15;;;;;;;;;;4955659;29;20122;-61
2022/04/06 14:18:07;;;;;;;1.83;1.67;;;;;;;;;;4955608;29;20180;-62
2022/04/06 14:20:32;;;;;;;1.95;1.75;;;;;;;;;;4955609;29;20118;-62
2022/04/06 14:22:57;;;;;;;3.17;1.67;;;;;;;;;;4955656;29;20019;-65
2022/04/06 14:25:25;;;;;;;2.42;1.98;;;;;;;;;;4993707;23;20067;-61
2022/04/06 14:27:51;;;;;;;1.42;1.33;;;;;;;;;;4994323;28;20022;-63
2022/04/06 14:30:16;;;;;;;2.30;1.90;;;;;;;;;;4994693;28;20408;-63
2022/04/06 14:32:42;;;;;;;3.08;1.30;;;;;;;;;;4997972;28;20040;-63
2022/04/06 14:35:08;;;;;;;4.47;2.00;;;;;;;;;;4998194;28;20029;-66
2022/04/06 14:37:33;;;;;;;2.20;1.60;;;;;;;;;;4980944;28;20046;-67
2022/04/06 14:39:58;;;;;;;1.00;0.98;;;;;;;;;;4998020;28;20462;-66
2022/04/06 14:42:24;;;;;;;1.50;1.40;;;;;;;;;;4998046;28;20030;-65
2022/04/06 14:44:49;;;;;;;1.55;1.45;;;;;;;;;;4998010;28;20014;-66
2022/04/06 14:47:14;;;;;;;1.80;1.40;;;;;;;;;;4997713;28;20385;-66
2022/04/06 14:49:39;;;;;;;1.50;1.40;;;;;;;;;;4997941;28;20026;-66
2022/04/06 14:52:05;;;;;;;1.60;1.38;;;;;;;;;;4997893;28;20089;-66